createdAt,value
2022-10-02T00:02:14.437Z,1217.18
2022-10-02T00:04:44.624Z,1218.63
2022-10-02T00:07:12.553Z,1216.85
2022-10-02T00:09:43.058Z,1218.83
2022-10-02T00:12:15.041Z,1220.28
2022-10-02T00:14:43.323Z,1221.63
2022-10-02T00:17:15.385Z,1212.75
2022-10-02T00:19:42.710Z,1215.07
2022-10-02T00:22:52.460Z,1217.38
2022-10-02T00:25:38.021Z,1214.10
2022-10-02T00:28:05.179Z,1214.80
2022-10-02T00:30:38.069Z,1221.50
2022-10-02T00:33:14.119Z,1214.20
2022-10-02T00:35:48.788Z,1225.43
2022-10-02T00:38:15.890Z,1290.27
2022-10-02T00:41:13.731Z,1283.87
2022-10-02T00:44:08.221Z,901.73
2022-10-02T00:46:35.680Z,874.17
2022-10-02T00:49:15.259Z,870.95
2022-10-02T00:51:56.690Z,865.58
2022-10-02T00:54:30.964Z,866.55
2022-10-02T00:57:05.749Z,1255.32
2022-10-02T00:59:37.035Z,867.97
2022-10-02T01:02:10.347Z,1224.82
2022-10-02T01:04:38.575Z,1206.65
2022-10-02T01:07:07.355Z,1211.15
2022-10-02T01:09:34.750Z,1231.22
2022-10-02T01:12:02.482Z,1228.00
2022-10-02T01:14:37.499Z,1210.10
2022-10-02T01:17:07.182Z,1218.72
2022-10-02T01:19:42.250Z,1217.72
2022-10-02T01:22:23.945Z,1217.18
2022-10-02T01:24:51.853Z,1213.57
2022-10-02T01:27:19.539Z,1216.15
2022-10-02T01:29:50.446Z,1211.13
2022-10-02T01:32:18.458Z,1208.70
2022-10-02T01:34:46.791Z,1208.70
2022-10-02T01:37:14.083Z,1215.60
2022-10-02T01:39:41.222Z,1207.65
2022-10-02T01:42:08.394Z,1216.18
2022-10-02T01:44:35.625Z,1221.25
2022-10-02T01:47:05.668Z,1212.20
2022-10-02T01:49:43.086Z,1224.22
2022-10-02T01:52:31.618Z,1217.03
2022-10-02T01:55:06.218Z,1208.70
2022-10-02T01:57:51.581Z,1212.03
2022-10-02T02:00:22.191Z,1212.00
2022-10-02T02:02:49.420Z,1216.28
2022-10-02T02:05:35.097Z,1214.93
2022-10-02T02:08:02.175Z,1219.93
2022-10-02T02:10:44.712Z,1218.05
2022-10-02T02:13:42.755Z,1215.07
2022-10-02T02:16:18.955Z,1215.40
2022-10-02T02:18:55.353Z,1215.32
2022-10-02T02:21:25.390Z,1213.80
2022-10-02T02:23:54.838Z,1214.90
2022-10-02T02:26:24.266Z,1215.70
2022-10-02T02:28:54.744Z,1215.43
2022-10-02T02:31:25.224Z,1218.00
2022-10-02T02:33:59.845Z,1216.03
2022-10-02T02:36:30.798Z,1214.53
2022-10-02T02:39:07.354Z,1215.17
2022-10-02T02:41:38.081Z,1219.68
2022-10-02T02:44:08.559Z,1218.10
2022-10-02T02:47:00.717Z,1212.57
2022-10-02T02:49:34.747Z,1217.50
2022-10-02T02:52:04.110Z,1215.28
2022-10-02T02:54:37.495Z,1218.25
2022-10-02T02:57:06.574Z,1218.07
2022-10-02T02:59:35.762Z,1214.50
2022-10-02T03:02:02.947Z,1214.97
2022-10-02T03:04:31.322Z,1215.05
2022-10-02T03:07:01.670Z,1215.77
2022-10-02T03:09:32.432Z,1212.53
2022-10-02T03:12:33.200Z,1210.35
2022-10-02T03:15:18.804Z,1214.95
2022-10-02T03:17:58.348Z,1211.77
2022-10-02T03:20:45.209Z,1217.43
2022-10-02T03:23:25.363Z,1212.35
2022-10-02T03:26:08.418Z,1215.65
2022-10-02T03:28:55.144Z,1222.60
2022-10-02T03:31:25.262Z,1217.35
2022-10-02T03:33:53.758Z,1212.50
2022-10-02T03:36:21.251Z,1218.40
2022-10-02T03:39:00.800Z,1224.32
2022-10-02T03:41:33.690Z,1115.45
2022-10-02T03:44:00.954Z,960.53
2022-10-02T03:46:28.088Z,1229.22
2022-10-02T03:48:56.403Z,1228.53
2022-10-02T03:51:24.373Z,1220.63
2022-10-02T03:53:51.614Z,1216.03
2022-10-02T03:56:26.746Z,1221.70
2022-10-02T03:58:54.616Z,1234.07
2022-10-02T04:01:24.429Z,967.97
2022-10-02T04:04:34.355Z,955.95
2022-10-02T04:07:04.749Z,943.20
2022-10-02T04:09:39.202Z,935.73
2022-10-02T04:12:19.779Z,935.58
2022-10-02T04:14:52.005Z,936.88
2022-10-02T04:17:29.808Z,941.40
2022-10-02T04:20:00.343Z,928.22
2022-10-02T04:22:42.384Z,923.80
2022-10-02T04:25:13.666Z,949.65
2022-10-02T04:27:42.494Z,927.28
2022-10-02T04:30:15.063Z,919.08
2022-10-02T04:32:42.386Z,924.17
2022-10-02T04:35:13.995Z,910.03
2022-10-02T04:37:51.601Z,914.30
2022-10-02T04:40:30.637Z,907.37
2022-10-02T04:43:16.158Z,898.63
2022-10-02T04:45:53.524Z,891.72
2022-10-02T04:48:20.892Z,882.88
2022-10-02T04:50:54.149Z,883.22
2022-10-02T04:53:28.877Z,884.70
2022-10-02T04:56:08.275Z,882.00
2022-10-02T04:58:35.318Z,876.80
2022-10-02T05:01:02.533Z,877.00
2022-10-02T05:03:32.908Z,879.30
2022-10-02T05:06:03.038Z,865.75
2022-10-02T05:08:39.542Z,1205.45
2022-10-02T05:11:06.659Z,1210.68
2022-10-02T05:13:46.152Z,1204.60
2022-10-02T05:16:16.727Z,1208.80
2022-10-02T05:18:50.911Z,1209.35
2022-10-02T05:21:36.134Z,1210.78
2022-10-02T05:24:11.676Z,1210.78
2022-10-02T05:27:08.456Z,1212.80
2022-10-02T05:29:50.934Z,845.00
2022-10-02T05:32:30.457Z,829.83
2022-10-02T05:35:16.004Z,827.47
2022-10-02T05:37:46.200Z,812.53
2022-10-02T05:40:13.315Z,790.22
2022-10-02T05:42:45.982Z,702.50
2022-10-02T05:45:13.243Z,1220.50
2022-10-02T05:47:45.102Z,850.53
2022-10-02T05:50:12.257Z,1117.93
2022-10-02T05:52:53.351Z,1254.73
2022-10-02T05:55:34.206Z,1248.07
2022-10-02T05:58:08.865Z,1253.53
2022-10-02T06:00:54.440Z,1247.65
2022-10-02T06:03:24.611Z,1238.33
2022-10-02T06:06:25.229Z,1246.55
2022-10-02T06:08:58.390Z,1237.93
2022-10-02T06:11:25.542Z,633.80
2022-10-02T06:13:59.518Z,614.20
2022-10-02T06:16:39.026Z,614.60
2022-10-02T06:19:12.855Z,602.03
2022-10-02T06:21:44.830Z,593.42
2022-10-02T06:24:16.746Z,587.63
2022-10-02T06:26:55.902Z,580.92
2022-10-02T06:29:27.300Z,590.97
2022-10-02T06:32:05.578Z,590.70
2022-10-02T06:34:32.815Z,593.72
2022-10-02T06:37:14.875Z,574.60
2022-10-02T06:39:48.724Z,571.33
2022-10-02T06:42:15.846Z,594.45
2022-10-02T06:44:43.066Z,588.88
2022-10-02T06:47:35.829Z,583.10
2022-10-02T06:50:12.225Z,588.53
2022-10-02T06:52:53.451Z,587.10
2022-10-02T06:55:33.020Z,591.78
2022-10-02T06:58:03.478Z,591.05
2022-10-02T07:00:34.775Z,579.20
2022-10-02T07:03:09.112Z,581.03
2022-10-02T07:06:15.050Z,575.92
2022-10-02T07:09:08.375Z,579.10
2022-10-02T07:12:31.902Z,573.80
2022-10-02T07:15:31.370Z,575.07
2022-10-02T07:18:10.340Z,578.78
2022-10-02T07:21:12.525Z,567.58
2022-10-02T07:23:47.903Z,564.93
2022-10-02T07:26:15.531Z,566.50
2022-10-02T07:28:49.424Z,621.35
2022-10-02T07:31:40.309Z,567.20
2022-10-02T07:34:17.688Z,564.03
2022-10-02T07:36:59.731Z,566.88
2022-10-02T07:39:51.346Z,563.97
2022-10-02T07:42:55.748Z,564.88
2022-10-02T07:45:30.799Z,563.75
2022-10-02T07:48:33.531Z,567.90
2022-10-02T07:51:36.519Z,566.78
2022-10-02T07:54:17.393Z,566.38
2022-10-02T07:56:46.123Z,577.65
2022-10-02T07:59:16.084Z,572.67
2022-10-02T08:01:45.431Z,851.90
2022-10-02T08:04:18.740Z,764.10
2022-10-02T08:06:47.184Z,814.92
2022-10-02T08:09:22.320Z,808.65
2022-10-02T08:11:49.884Z,811.72
2022-10-02T08:14:38.186Z,821.83
2022-10-02T08:17:27.587Z,1254.27
2022-10-02T08:19:55.818Z,928.33
2022-10-02T08:22:34.598Z,908.97
2022-10-02T08:25:04.519Z,910.58
2022-10-02T08:27:50.640Z,913.17
2022-10-02T08:30:18.303Z,903.47
2022-10-02T08:32:47.760Z,918.42
2022-10-02T08:35:16.404Z,889.73
2022-10-02T08:38:02.528Z,911.78
2022-10-02T08:40:46.705Z,916.07
2022-10-02T08:43:17.273Z,917.25
2022-10-02T08:46:13.072Z,914.33
2022-10-02T08:48:59.072Z,987.08
2022-10-02T08:51:57.358Z,973.15
2022-10-02T08:55:00.949Z,1011.78
2022-10-02T08:57:34.114Z,964.45
2022-10-02T09:00:09.729Z,924.30
2022-10-02T09:02:42.817Z,873.05
2022-10-02T09:05:28.354Z,870.50
2022-10-02T09:07:56.618Z,854.60
2022-10-02T09:10:35.696Z,890.87
2022-10-02T09:13:38.149Z,854.58
2022-10-02T09:16:08.932Z,820.22
2022-10-02T09:18:42.321Z,823.38
2022-10-02T09:21:15.575Z,831.75
2022-10-02T09:23:52.652Z,1095.85
2022-10-02T09:26:20.998Z,873.50
2022-10-02T09:29:36.459Z,874.60
2022-10-02T09:32:19.038Z,1126.95
2022-10-02T09:34:54.761Z,1175.32
2022-10-02T09:37:40.611Z,1176.72
2022-10-02T09:40:48.749Z,1180.03
2022-10-02T09:43:36.810Z,1172.55
2022-10-02T09:46:22.909Z,1176.55
2022-10-02T09:48:53.707Z,1175.15
2022-10-02T09:51:41.831Z,1176.38
2022-10-02T09:54:27.811Z,1176.32
2022-10-02T09:56:55.138Z,1182.68
2022-10-02T09:59:40.670Z,1176.20
2022-10-02T10:02:38.383Z,1179.25
2022-10-02T10:05:35.203Z,1177.07
2022-10-02T10:08:05.662Z,1175.10
2022-10-02T10:10:32.819Z,1186.18
2022-10-02T10:13:09.133Z,1191.65
2022-10-02T10:15:42.300Z,1190.65
2022-10-02T10:18:18.615Z,1189.75
2022-10-02T10:20:51.736Z,1194.72
2022-10-02T10:23:21.794Z,1197.93
2022-10-02T10:25:54.854Z,1189.90
2022-10-02T10:31:59.073Z,1182.82
2022-10-02T10:34:46.084Z,1189.63
2022-10-02T10:38:09.409Z,1195.80
2022-10-02T10:40:43.879Z,1183.97
2022-10-02T10:43:20.220Z,1183.72
2022-10-02T10:46:09.867Z,1182.60
2022-10-02T10:48:37.099Z,1186.35
2022-10-02T10:51:14.261Z,1184.80
2022-10-02T10:53:44.494Z,1190.25
2022-10-02T10:56:11.727Z,1190.03
2022-10-02T10:59:06.421Z,1198.28
2022-10-02T11:01:37.888Z,1200.03
2022-10-02T11:04:07.965Z,1206.63
2022-10-02T11:06:50.516Z,1213.25
2022-10-02T11:09:58.267Z,1217.22
2022-10-02T11:12:39.057Z,1212.32
2022-10-02T11:15:19.542Z,1205.53
2022-10-02T11:18:07.926Z,1192.97
2022-10-02T11:20:50.694Z,1206.15
2022-10-02T11:23:42.811Z,1195.68
2022-10-02T11:26:25.064Z,1188.45
2022-10-02T11:29:00.230Z,1207.63
2022-10-02T11:31:37.596Z,1294.32
2022-10-02T11:34:26.512Z,1257.20
2022-10-02T11:37:08.005Z,1323.53
2022-10-02T11:40:13.239Z,1147.72
2022-10-02T11:42:58.772Z,973.90
2022-10-02T11:45:37.197Z,983.30
2022-10-02T11:48:23.982Z,1237.23
2022-10-02T11:51:01.751Z,1227.68
2022-10-02T11:53:37.943Z,995.17
2022-10-02T11:56:23.718Z,785.17
2022-10-02T11:59:00.382Z,776.55
2022-10-02T12:02:15.648Z,773.78
2022-10-02T12:04:47.183Z,773.58
2022-10-02T12:07:14.384Z,776.45
2022-10-02T12:09:44.203Z,760.90
2022-10-02T12:12:30.214Z,755.38
2022-10-02T12:15:04.857Z,758.33
2022-10-02T12:17:53.075Z,732.75
2022-10-02T12:21:26.687Z,740.87
2022-10-02T12:24:41.046Z,733.05
2022-10-02T12:27:52.671Z,717.13
2022-10-02T12:30:24.032Z,827.13
2022-10-02T12:33:08.000Z,768.15
2022-10-02T12:36:00.752Z,749.58
2022-10-02T12:38:40.562Z,769.72
2022-10-02T12:41:19.680Z,752.90
2022-10-02T12:44:06.605Z,723.42
2022-10-02T12:46:41.221Z,719.65
2022-10-02T12:49:38.807Z,740.55
2022-10-02T12:52:05.963Z,742.65
2022-10-02T12:54:36.076Z,752.38
2022-10-02T12:57:36.675Z,719.80
2022-10-02T13:00:11.651Z,716.05
2022-10-02T13:03:01.199Z,704.00
2022-10-02T13:05:46.930Z,712.33
2022-10-02T13:08:22.240Z,714.80
2022-10-02T13:11:00.728Z,709.35
2022-10-02T13:14:04.619Z,712.15
2022-10-02T13:16:50.256Z,700.28
2022-10-02T13:19:20.874Z,720.07
2022-10-02T13:22:09.206Z,710.55
2022-10-02T13:24:55.294Z,701.55
2022-10-02T13:27:49.432Z,749.03
2022-10-02T13:30:20.989Z,736.67
2022-10-02T13:33:00.030Z,713.10
2022-10-02T13:35:36.150Z,909.38
2022-10-02T13:38:23.240Z,840.17
2022-10-02T13:41:14.014Z,690.85
2022-10-02T13:43:49.064Z,693.28
2022-10-02T13:46:16.412Z,684.63
2022-10-02T13:48:43.509Z,681.83
2022-10-02T13:51:28.668Z,696.33
2022-10-02T13:54:06.073Z,666.50
2022-10-02T13:56:36.717Z,663.70
2022-10-02T13:59:04.010Z,669.20
2022-10-02T14:01:36.322Z,654.20
2022-10-02T14:04:11.232Z,667.55
2022-10-02T14:06:55.099Z,667.53
2022-10-02T14:09:25.218Z,688.03
2022-10-02T14:11:58.342Z,689.90
2022-10-02T14:14:47.062Z,679.55
2022-10-02T14:17:35.992Z,694.22
2022-10-02T14:20:16.087Z,689.90
2022-10-02T14:22:58.711Z,677.25
2022-10-02T14:25:27.983Z,682.95
2022-10-02T14:28:13.529Z,678.63
2022-10-02T14:31:00.390Z,672.05
2022-10-02T14:33:52.157Z,673.72
2022-10-02T14:36:19.357Z,646.92
2022-10-02T14:38:54.908Z,658.15
2022-10-02T14:41:37.713Z,659.88
2022-10-02T14:44:39.511Z,660.25
2022-10-02T14:47:13.303Z,672.88
2022-10-02T14:49:58.166Z,677.72
2022-10-02T14:52:43.339Z,673.17
2022-10-02T14:55:10.542Z,667.67
2022-10-02T14:57:48.579Z,672.20
2022-10-02T15:00:16.022Z,679.67
2022-10-02T15:03:10.119Z,669.30
2022-10-02T15:06:14.472Z,660.60
2022-10-02T15:08:54.075Z,665.47
2022-10-02T15:11:28.534Z,662.70
2022-10-02T15:14:08.258Z,664.78
2022-10-02T15:17:07.747Z,658.60
2022-10-02T15:20:04.086Z,640.05
2022-10-02T15:22:36.217Z,971.85
2022-10-02T15:25:33.049Z,1243.32
2022-10-02T15:28:31.332Z,1268.13
2022-10-02T15:30:57.103Z,1076.10
2022-10-02T15:33:34.235Z,975.60
2022-10-02T15:36:01.314Z,1054.30
2022-10-02T15:38:31.429Z,687.00
2022-10-02T15:41:15.358Z,669.10
2022-10-02T15:43:42.608Z,656.63
2022-10-02T15:46:24.435Z,639.08
2022-10-02T15:48:57.627Z,644.35
2022-10-02T15:51:40.763Z,641.40
2022-10-02T15:54:10.914Z,642.60
2022-10-02T15:56:56.930Z,648.13
2022-10-02T15:59:30.304Z,649.55
2022-10-02T16:02:35.215Z,646.65
2022-10-02T16:05:29.198Z,640.00
2022-10-02T16:07:59.130Z,633.67
2022-10-02T16:10:27.441Z,627.13
2022-10-02T16:12:57.554Z,621.08
2022-10-02T16:15:42.584Z,629.65
2022-10-02T16:18:19.307Z,622.45
2022-10-02T16:21:06.652Z,623.30
2022-10-02T16:23:45.859Z,625.28
2022-10-02T16:26:15.880Z,624.17
2022-10-02T16:29:19.231Z,611.10
2022-10-02T16:32:02.066Z,608.88
2022-10-02T16:34:59.539Z,609.28
2022-10-02T16:37:29.262Z,607.67
2022-10-02T16:40:00.733Z,605.83
2022-10-02T16:42:40.209Z,603.65
2022-10-02T16:45:34.551Z,604.40
2022-10-02T16:48:01.824Z,617.38
2022-10-02T16:50:42.246Z,607.88
2022-10-02T16:53:22.562Z,608.42
2022-10-02T16:56:11.185Z,618.35
2022-10-02T16:58:51.311Z,609.47
2022-10-02T17:01:25.056Z,602.55
2022-10-02T17:03:56.482Z,603.33
2022-10-02T17:06:26.862Z,605.40
2022-10-02T17:09:06.118Z,607.88
2022-10-02T17:11:45.164Z,604.30
2022-10-02T17:14:12.418Z,605.07
2022-10-02T17:16:49.037Z,604.67
2022-10-02T17:19:25.382Z,603.42
2022-10-02T17:22:09.219Z,613.45
2022-10-02T17:24:48.858Z,606.13
2022-10-02T17:27:16.175Z,601.90
2022-10-02T17:29:43.367Z,595.47
2022-10-02T17:32:10.557Z,786.10
2022-10-02T17:34:49.791Z,620.08
2022-10-02T17:37:17.323Z,614.55
2022-10-02T17:40:01.374Z,616.50
2022-10-02T17:42:48.087Z,615.20
2022-10-02T17:45:15.233Z,605.33
2022-10-02T17:47:54.973Z,603.97
2022-10-02T17:50:34.493Z,605.47
2022-10-02T17:53:20.314Z,603.20
2022-10-02T17:56:28.925Z,603.77
2022-10-02T17:59:20.887Z,602.85
2022-10-02T18:02:18.804Z,599.05
2022-10-02T18:05:23.462Z,598.95
2022-10-02T18:07:53.651Z,594.03
2022-10-02T18:10:55.681Z,592.55
2022-10-02T18:13:47.161Z,595.92
2022-10-02T18:16:38.076Z,592.40
2022-10-02T18:19:27.854Z,597.35
2022-10-02T18:22:00.081Z,600.75
2022-10-02T18:24:33.398Z,597.17
2022-10-02T18:27:09.750Z,597.88
2022-10-02T18:29:59.923Z,594.38
2022-10-02T18:32:36.103Z,596.58
2022-10-02T18:35:28.330Z,596.20
2022-10-02T18:38:07.693Z,596.08
2022-10-02T18:41:05.124Z,593.05
2022-10-02T18:44:02.909Z,600.20
2022-10-02T18:46:31.090Z,615.17
2022-10-02T18:49:17.445Z,610.38
2022-10-02T18:52:03.591Z,607.97
2022-10-02T18:54:53.205Z,602.90
2022-10-02T18:57:27.881Z,605.78
2022-10-02T19:00:16.933Z,605.50
2022-10-02T19:03:09.238Z,603.72
2022-10-02T19:05:41.580Z,596.67
2022-10-02T19:08:41.475Z,596.58
2022-10-02T19:11:18.350Z,599.58
2022-10-02T19:13:48.082Z,604.03
2022-10-02T19:16:22.854Z,601.97
2022-10-02T19:18:50.039Z,599.22
2022-10-02T19:21:21.671Z,598.60
2022-10-02T19:24:08.216Z,597.42
2022-10-02T19:26:41.272Z,598.65
2022-10-02T19:29:25.525Z,602.15
2022-10-02T19:31:53.711Z,601.37
2022-10-02T19:34:24.548Z,601.85
2022-10-02T19:36:59.239Z,604.30
2022-10-02T19:39:32.163Z,603.57
2022-10-02T19:42:16.771Z,605.70
2022-10-02T19:44:51.922Z,603.80
2022-10-02T19:47:27.690Z,608.42
2022-10-02T19:49:56.842Z,607.83
2022-10-02T19:52:35.720Z,606.55
2022-10-02T19:55:19.007Z,604.30
2022-10-02T19:57:47.972Z,605.40
2022-10-02T20:00:16.592Z,609.75
2022-10-02T20:02:48.429Z,606.60
2022-10-02T20:05:26.251Z,602.33
2022-10-02T20:08:06.411Z,604.70
2022-10-02T20:10:54.391Z,599.58
2022-10-02T20:13:36.347Z,603.37
2022-10-02T20:16:32.410Z,602.58
2022-10-02T20:19:00.641Z,605.53
2022-10-02T20:21:42.585Z,603.50
2022-10-02T20:24:33.198Z,603.67
2022-10-02T20:27:11.370Z,602.72
2022-10-02T20:29:46.447Z,601.15
2022-10-02T20:32:17.107Z,602.25
2022-10-02T20:35:02.158Z,600.83
2022-10-02T20:37:34.869Z,600.20
2022-10-02T20:40:26.241Z,601.87
2022-10-02T20:43:05.683Z,603.90
2022-10-02T20:45:53.135Z,603.45
2022-10-02T20:49:03.468Z,605.42
2022-10-02T20:51:30.010Z,604.17
2022-10-02T20:54:37.535Z,603.53
2022-10-02T20:57:14.683Z,606.20
2022-10-02T21:00:12.810Z,602.85
2022-10-02T21:02:52.219Z,604.08
2022-10-02T21:05:19.376Z,601.95
2022-10-02T21:08:30.550Z,606.87
2022-10-02T21:11:13.819Z,600.40
2022-10-02T21:13:46.855Z,606.13
2022-10-02T21:16:26.826Z,610.50
2022-10-02T21:19:13.488Z,604.20
2022-10-02T21:22:08.232Z,608.47
2022-10-02T21:25:04.587Z,607.70
2022-10-02T21:27:31.762Z,599.70
2022-10-02T21:30:18.883Z,601.20
2022-10-02T21:33:21.939Z,599.90
2022-10-02T21:36:08.142Z,598.90
2022-10-02T21:38:41.695Z,598.28
2022-10-02T21:41:19.723Z,594.17
2022-10-02T21:44:18.018Z,596.78
2022-10-02T21:47:03.902Z,597.03
2022-10-02T21:49:46.422Z,593.08
2022-10-02T21:52:56.643Z,596.08
2022-10-02T21:55:33.153Z,590.35
2022-10-02T21:58:15.615Z,589.67
2022-10-02T22:00:59.800Z,592.25
2022-10-02T22:04:03.506Z,592.30
2022-10-02T22:06:58.350Z,593.28
2022-10-02T22:09:47.603Z,592.35
2022-10-02T22:12:17.779Z,591.70
2022-10-02T22:15:06.484Z,593.43
2022-10-02T22:17:39.819Z,587.33
2022-10-02T22:20:13.322Z,588.95
2022-10-02T22:22:50.366Z,589.85
2022-10-02T22:25:34.351Z,588.53
2022-10-02T22:28:04.687Z,590.25
2022-10-02T22:30:36.629Z,588.75
2022-10-02T22:33:27.680Z,591.50
2022-10-02T22:36:31.970Z,591.08
2022-10-02T22:39:40.757Z,589.00
2022-10-02T22:42:13.070Z,591.85
2022-10-02T22:44:48.247Z,592.10
2022-10-02T22:47:19.476Z,590.63
2022-10-02T22:49:46.726Z,592.38
2022-10-02T22:52:20.549Z,592.77
2022-10-02T22:54:53.859Z,593.10
2022-10-02T22:57:33.032Z,591.38
2022-10-02T23:00:03.099Z,590.40
2022-10-02T23:02:34.419Z,587.70
2022-10-02T23:05:22.687Z,585.88
2022-10-02T23:08:16.282Z,585.88
2022-10-02T23:10:52.143Z,586.33
2022-10-02T23:13:47.700Z,584.00
2022-10-02T23:16:44.075Z,582.13
2022-10-02T23:19:30.033Z,579.97
2022-10-02T23:22:05.796Z,585.25
2022-10-02T23:25:03.214Z,581.05
2022-10-02T23:27:46.579Z,582.65
2022-10-02T23:30:22.124Z,579.00
2022-10-02T23:32:59.573Z,578.88
2022-10-02T23:35:34.543Z,578.90
2022-10-02T23:38:14.075Z,579.22
2022-10-02T23:41:15.051Z,577.25
2022-10-02T23:43:48.632Z,577.47
2022-10-02T23:46:26.013Z,578.50
2022-10-02T23:48:54.595Z,578.10
2022-10-02T23:51:23.915Z,578.30
2022-10-02T23:54:00.104Z,581.22
2022-10-02T23:56:36.662Z,580.83
2022-10-02T23:59:26.494Z,578.92
